map of ZQN home
ZQN - Airport
Location
City:  Queenstown, Otago (O Takou), New Zealand
Name:Queenstown International Airport
ICAO:NZQN
IATA:ZQN

Details
Type:Airport (Aerodrome, Airfield)
Use:International (customs port of entry)
Latitude:45°01'16"S (-45.021110)
Longitude:168°44'21"E (168.739167)
Elevation:1171 ft (357 m)
Variation:24.52°E (WMM2015v2 magnetic declination)
0.07° annual change
Runways:3
Longest:6204 × 98 ft (1891 × 30 m), paved

Time
Time Zone:UTC+12 (DST+13)
Local Time:

Weather
TAF:NZQN 041018Z 0411/0505 VRB02KT 9999 -RA BKN080
BECMG 0421/0423 26012KT

Related Locations
Nearby:
Farthest:LCG: 12250 mi / 19714 km
A Coruņa [A Coruņa Airport (Alvedro Airport)], GA, ES

Find:

   beyond  
but within

Other Information
Maps:
NOTAMs:
Links:
Sources:

  
  • flag of New Zealand
  

Sectional Chart

Flight Planning
at skyvector.com

Satellite Image

Google Maps Satellite view

 

Copyright © 2004-2019 Karl L. Swartz. All rights reserved.
The Great Circle Mapper name and logo are trademarks of the Great Circle Mapper.
All other trademarks mentioned herein belong to their respective owners.
Please see credits for attibutions and further copyright information.

  Follow gcmap on Facebook Follow gcmap on Twitter GCmap on LinkedIn

hCard Microformat

Geo Microformat